< < Back
Terminal Aerodrome Forecast


Current Version              Previous Versions:   1  2  3  4  5  6  7  8  9  

Terminal Aerodrome Forecast

128
FTUS42 KTAE 250300 AAB
TAFDHN
TAF AMD
KDHN 250303Z 2503/2524 33003KT P6SM SKC=



Latest METAR

391
SAUS70 KWBC 260000 RRI
MTRDHN
METAR KDHN 252353Z 30004KT 10SM CLR 19/11 A3005 RMK AO2 SLP175 T01890111
10261 20178 53003


USA.gov is the U.S. government's official web portal to all federal, state and local government web resources and services.